createdAt,value
2023-04-10T00:02:03.803Z,14.82
2023-04-10T00:04:39.369Z,13.27
2023-04-10T00:07:07.893Z,12.55
2023-04-10T00:09:35.407Z,13.38
2023-04-10T00:12:11.348Z,12.63
2023-04-10T00:14:40.513Z,12.73
2023-04-10T00:17:10.874Z,13.38
2023-04-10T00:19:38.427Z,12.90
2023-04-10T00:22:07.743Z,13.98
2023-04-10T00:24:39.940Z,14.00
2023-04-10T00:27:07.535Z,13.65
2023-04-10T00:29:35.434Z,13.68
2023-04-10T00:32:09.035Z,14.50
2023-04-10T00:34:36.717Z,14.98
2023-04-10T00:37:05.189Z,14.32
2023-04-10T00:39:32.751Z,14.15
2023-04-10T00:42:01.637Z,14.25
2023-04-10T00:44:29.825Z,14.55
2023-04-10T00:46:57.444Z,13.80
2023-04-10T00:49:25.375Z,16.88
2023-04-10T00:51:55.685Z,15.02
2023-04-10T00:54:31.473Z,14.65
2023-04-10T00:56:59.812Z,13.05
2023-04-10T00:59:27.382Z,14.20
2023-04-10T01:01:55.830Z,13.15
2023-04-10T01:04:26.808Z,12.77
2023-04-10T01:07:03.786Z,12.70
2023-04-10T01:10:07.275Z,12.77
2023-04-10T01:12:44.459Z,12.80
2023-04-10T01:15:15.769Z,12.90
2023-04-10T01:17:50.540Z,13.10
2023-04-10T01:20:21.187Z,13.25
2023-04-10T01:23:28.047Z,12.93
2023-04-10T01:26:07.419Z,13.00
2023-04-10T01:29:00.686Z,12.60
2023-04-10T01:31:41.969Z,12.38
2023-04-10T01:34:18.255Z,13.48
2023-04-10T01:37:11.541Z,12.88
2023-04-10T01:39:41.954Z,12.57
2023-04-10T01:42:12.081Z,12.75
2023-04-10T01:44:46.783Z,13.70
2023-04-10T01:47:19.136Z,12.77
2023-04-10T01:49:50.506Z,12.20
2023-04-10T01:52:19.593Z,13.40
2023-04-10T01:54:53.714Z,13.60
2023-04-10T01:57:33.060Z,13.25
2023-04-10T02:00:05.112Z,14.95
2023-04-10T02:02:44.620Z,16.30
2023-04-10T02:05:12.719Z,15.60
2023-04-10T02:08:10.998Z,15.88
2023-04-10T02:11:23.392Z,16.63
2023-04-10T02:13:53.985Z,15.35
2023-04-10T02:16:23.493Z,14.82
2023-04-10T02:18:52.854Z,15.07
2023-04-10T02:21:20.768Z,14.13
2023-04-10T02:23:49.606Z,15.18
2023-04-10T02:26:17.029Z,15.55
2023-04-10T02:28:51.200Z,16.88
2023-04-10T02:31:19.556Z,17.50
2023-04-10T02:33:48.350Z,18.77
2023-04-10T02:36:15.972Z,18.67
2023-04-10T02:38:43.937Z,17.92
2023-04-10T02:41:13.276Z,18.50
2023-04-10T02:43:41.419Z,18.73
2023-04-10T02:46:09.217Z,18.63
2023-04-10T02:48:42.398Z,17.63
2023-04-10T02:51:10.809Z,17.00
2023-04-10T02:53:40.806Z,16.48
2023-04-10T02:56:09.192Z,16.25
2023-04-10T02:58:36.708Z,16.33
2023-04-10T03:01:07.307Z,17.25
2023-04-10T03:03:44.005Z,16.38
2023-04-10T03:06:13.960Z,17.00
2023-04-10T03:08:44.385Z,15.77
2023-04-10T03:11:12.365Z,16.35
2023-04-10T03:13:44.739Z,15.52
2023-04-10T03:16:12.368Z,15.23
2023-04-10T03:18:40.224Z,15.85
2023-04-10T03:21:10.660Z,14.80
2023-04-10T03:23:38.718Z,15.27
2023-04-10T03:26:06.471Z,15.15
2023-04-10T03:28:39.838Z,14.55
2023-04-10T03:31:12.523Z,14.98
2023-04-10T03:33:43.101Z,15.82
2023-04-10T03:36:11.582Z,16.13
2023-04-10T03:38:39.756Z,18.55
2023-04-10T03:41:12.167Z,18.55
2023-04-10T03:43:42.489Z,19.25
2023-04-10T03:46:10.379Z,19.63
2023-04-10T03:48:42.728Z,22.75
2023-04-10T03:51:11.355Z,26.13
2023-04-10T03:53:39.194Z,23.92
2023-04-10T03:56:11.633Z,24.17
2023-04-10T03:58:41.475Z,24.77
2023-04-10T04:01:09.521Z,24.38
2023-04-10T04:03:54.419Z,22.75
2023-04-10T04:06:45.386Z,23.73
2023-04-10T04:09:30.065Z,24.67
2023-04-10T04:12:20.974Z,24.83
2023-04-10T04:15:14.619Z,25.80
2023-04-10T04:18:03.204Z,26.23
2023-04-10T04:20:41.635Z,25.50
2023-04-10T04:23:15.526Z,21.08
2023-04-10T04:25:43.908Z,21.05
2023-04-10T04:28:31.717Z,20.63
2023-04-10T04:31:17.333Z,19.92
2023-04-10T04:34:19.434Z,18.33
2023-04-10T04:37:05.679Z,18.52
2023-04-10T04:39:41.435Z,17.08
2023-04-10T04:42:24.326Z,16.30
2023-04-10T04:45:05.174Z,15.90
2023-04-10T04:47:41.512Z,13.55
2023-04-10T04:50:23.724Z,14.45
2023-04-10T04:53:02.541Z,14.90
2023-04-10T04:55:50.324Z,14.48
2023-04-10T04:58:31.629Z,15.60
2023-04-10T05:01:19.979Z,15.90
2023-04-10T05:04:08.745Z,14.73
2023-04-10T05:06:55.015Z,15.38
2023-04-10T05:09:45.076Z,14.70
2023-04-10T05:12:33.195Z,15.13
2023-04-10T05:15:05.957Z,15.05
2023-04-10T05:17:55.910Z,14.98
2023-04-10T05:20:40.662Z,14.90
2023-04-10T05:23:36.995Z,15.20
2023-04-10T05:26:42.598Z,14.05
2023-04-10T05:29:29.077Z,13.77
2023-04-10T05:32:32.517Z,12.95
2023-04-10T05:35:08.248Z,13.75
2023-04-10T05:37:52.743Z,14.10
2023-04-10T05:40:26.967Z,12.95
2023-04-10T05:43:10.730Z,11.93
2023-04-10T05:45:58.645Z,13.20
2023-04-10T05:48:43.265Z,12.88
2023-04-10T05:51:22.380Z,13.02
2023-04-10T05:54:05.782Z,13.68
2023-04-10T05:57:08.815Z,13.05
2023-04-10T06:00:06.167Z,12.93
2023-04-10T06:02:59.100Z,13.20
2023-04-10T06:08:01.252Z,13.27
2023-04-10T06:10:31.709Z,12.07
2023-04-10T06:12:59.745Z,12.25
2023-04-10T06:15:32.531Z,12.68
2023-04-10T06:18:00.530Z,12.15
2023-04-10T06:20:28.102Z,13.23
2023-04-10T06:23:03.052Z,12.23
2023-04-10T06:25:32.595Z,12.55
2023-04-10T06:28:01.288Z,11.38
2023-04-10T06:30:31.195Z,11.68
2023-04-10T06:32:59.536Z,12.35
2023-04-10T06:35:27.479Z,10.88
2023-04-10T06:37:55.995Z,11.98
2023-04-10T06:40:24.069Z,11.93
2023-04-10T06:42:51.584Z,11.20
2023-04-10T06:45:45.691Z,11.55
2023-04-10T06:48:13.365Z,11.05
2023-04-10T06:50:41.173Z,10.73
2023-04-10T06:53:08.888Z,9.60
2023-04-10T06:55:38.479Z,10.10
2023-04-10T06:58:26.033Z,9.02
2023-04-10T07:00:54.340Z,9.95
2023-04-10T07:03:23.043Z,8.48
2023-04-10T07:05:50.819Z,8.25
2023-04-10T07:08:20.912Z,7.53
2023-04-10T07:10:48.526Z,7.07
2023-04-10T07:13:16.303Z,8.07
2023-04-10T07:15:45.484Z,6.63
2023-04-10T07:18:13.628Z,6.60
2023-04-10T07:20:41.602Z,6.35
2023-04-10T07:23:11.252Z,5.90
2023-04-10T07:25:42.010Z,5.95
2023-04-10T07:28:09.615Z,5.68
2023-04-10T07:30:43.441Z,5.55
2023-04-10T07:33:11.298Z,4.63
2023-04-10T07:35:38.892Z,4.30
2023-04-10T07:38:07.090Z,4.20
2023-04-10T07:40:34.673Z,4.55
2023-04-10T07:43:02.113Z,4.60
2023-04-10T07:45:29.799Z,4.68
2023-04-10T07:47:59.491Z,4.80
2023-04-10T07:50:34.192Z,4.80
2023-04-10T07:53:07.728Z,4.57
2023-04-10T07:55:44.047Z,4.70
2023-04-10T07:58:12.036Z,4.00
2023-04-10T08:00:40.981Z,4.88
2023-04-10T08:03:09.036Z,4.97
2023-04-10T08:05:37.074Z,4.07
2023-04-10T08:08:04.667Z,3.45
2023-04-10T08:10:37.771Z,4.10
2023-04-10T08:13:07.358Z,4.20
2023-04-10T08:15:35.561Z,4.15
2023-04-10T08:18:09.557Z,4.10
2023-04-10T08:20:39.985Z,3.67
2023-04-10T08:23:19.926Z,4.15
2023-04-10T08:25:48.570Z,3.60
2023-04-10T08:28:16.969Z,4.05
2023-04-10T08:30:45.521Z,3.60
2023-04-10T08:33:13.262Z,4.22
2023-04-10T08:35:40.939Z,3.85
2023-04-10T08:38:14.014Z,3.65
2023-04-10T08:40:42.853Z,3.75
2023-04-10T08:43:12.917Z,4.10
2023-04-10T08:45:41.749Z,3.80
2023-04-10T08:48:11.023Z,3.35
2023-04-10T08:50:45.464Z,3.22
2023-04-10T08:53:14.584Z,3.60
2023-04-10T08:55:45.903Z,3.65
2023-04-10T08:58:14.638Z,4.45
2023-04-10T09:00:42.339Z,3.72
2023-04-10T09:03:15.118Z,4.00
2023-04-10T09:05:43.835Z,3.80
2023-04-10T09:08:12.317Z,3.80
2023-04-10T09:10:42.267Z,3.60
2023-04-10T09:13:10.778Z,3.80
2023-04-10T09:15:59.431Z,3.20
2023-04-10T09:18:45.692Z,3.63
2023-04-10T09:21:16.246Z,3.78
2023-04-10T09:23:45.737Z,3.72
2023-04-10T09:26:24.786Z,3.97
2023-04-10T09:29:06.183Z,3.63
2023-04-10T09:31:38.563Z,4.13
2023-04-10T09:34:19.787Z,3.60
2023-04-10T09:37:04.196Z,3.63
2023-04-10T09:39:43.451Z,4.10
2023-04-10T09:42:15.104Z,9.15
2023-04-10T09:44:43.171Z,3.63
2023-04-10T09:47:14.717Z,3.47
2023-04-10T09:49:48.462Z,3.45
2023-04-10T09:52:30.474Z,3.40
2023-04-10T09:55:07.718Z,3.15
2023-04-10T09:57:36.389Z,3.40
2023-04-10T10:00:09.488Z,3.70
2023-04-10T10:02:55.267Z,4.35
2023-04-10T10:05:28.141Z,3.60
2023-04-10T10:08:00.467Z,3.10
2023-04-10T10:10:28.445Z,3.28
2023-04-10T10:13:00.867Z,3.22
2023-04-10T10:16:01.969Z,4.00
2023-04-10T10:18:45.047Z,3.78
2023-04-10T10:21:14.615Z,3.20
2023-04-10T10:23:45.370Z,3.42
2023-04-10T10:26:14.646Z,3.40
2023-04-10T10:28:43.744Z,17.30
2023-04-10T10:31:13.106Z,5.45
2023-04-10T10:33:41.357Z,3.50
2023-04-10T10:36:09.199Z,3.92
2023-04-10T10:38:42.001Z,3.50
2023-04-10T10:41:18.099Z,3.90
2023-04-10T10:44:01.277Z,3.78
2023-04-10T10:46:50.055Z,3.53
2023-04-10T10:49:17.660Z,3.05
2023-04-10T10:51:51.641Z,3.22
2023-04-10T10:54:37.548Z,3.50
2023-04-10T10:57:46.853Z,3.67
2023-04-10T11:00:15.953Z,3.33
2023-04-10T11:03:08.830Z,3.17
2023-04-10T11:05:58.668Z,3.65
2023-04-10T11:08:40.679Z,3.15
2023-04-10T11:11:27.425Z,2.80
2023-04-10T11:13:58.907Z,3.20
2023-04-10T11:16:34.945Z,2.75
2023-04-10T11:19:16.176Z,2.50
2023-04-10T11:22:05.777Z,3.30
2023-04-10T11:24:59.363Z,3.45
2023-04-10T11:27:41.685Z,2.67
2023-04-10T11:30:28.518Z,3.25
2023-04-10T11:32:57.071Z,2.45
2023-04-10T11:35:26.041Z,2.50
2023-04-10T11:38:18.065Z,3.33
2023-04-10T11:41:01.778Z,3.15
2023-04-10T11:43:30.760Z,3.40
2023-04-10T11:46:07.801Z,3.70
2023-04-10T11:48:37.753Z,2.60
2023-04-10T11:51:12.647Z,2.90
2023-04-10T11:53:41.284Z,2.92
2023-04-10T11:56:23.355Z,3.00
2023-04-10T11:58:54.459Z,3.38
2023-04-10T12:01:23.115Z,2.80
2023-04-10T12:03:51.732Z,3.20
2023-04-10T12:06:19.783Z,3.05
2023-04-10T12:08:52.074Z,3.30
2023-04-10T12:11:21.696Z,2.60
2023-04-10T12:13:53.797Z,3.42
2023-04-10T12:16:27.459Z,3.28
2023-04-10T12:18:55.920Z,3.08
2023-04-10T12:21:24.145Z,2.70
2023-04-10T12:23:53.069Z,2.80
2023-04-10T12:26:21.302Z,3.25
2023-04-10T12:28:54.997Z,2.85
2023-04-10T12:31:32.165Z,3.70
2023-04-10T12:34:01.274Z,4.03
2023-04-10T12:36:30.610Z,3.60
2023-04-10T12:39:04.638Z,3.10
2023-04-10T12:41:34.396Z,3.40
2023-04-10T12:44:08.434Z,3.00
2023-04-10T12:46:36.945Z,3.10
2023-04-10T12:49:18.456Z,2.90
2023-04-10T12:51:49.098Z,4.05
2023-04-10T12:54:33.300Z,3.97
2023-04-10T12:57:07.423Z,3.00
2023-04-10T12:59:36.182Z,2.65
2023-04-10T13:02:03.894Z,3.08
2023-04-10T13:04:34.217Z,3.10
2023-04-10T13:07:03.043Z,3.42
2023-04-10T13:09:30.505Z,2.80
2023-04-10T13:12:08.976Z,2.78
2023-04-10T13:14:37.775Z,2.65
2023-04-10T13:17:05.566Z,2.90
2023-04-10T13:19:33.080Z,2.78
2023-04-10T13:22:02.029Z,2.80
2023-04-10T13:24:29.624Z,2.88
2023-04-10T13:26:59.606Z,2.90
2023-04-10T13:29:27.349Z,2.88
2023-04-10T13:31:54.887Z,3.28
2023-04-10T13:34:26.914Z,2.85
2023-04-10T13:36:54.442Z,2.60
2023-04-10T13:39:22.001Z,3.28
2023-04-10T13:41:49.717Z,2.75
2023-04-10T13:44:17.342Z,3.20
2023-04-10T13:46:45.362Z,2.70
2023-04-10T13:49:17.101Z,2.85
2023-04-10T13:51:45.647Z,2.83
2023-04-10T13:54:17.026Z,5.32
2023-04-10T13:56:46.634Z,4.13
2023-04-10T13:59:21.599Z,3.67
2023-04-10T14:01:52.587Z,2.97
2023-04-10T14:04:20.744Z,2.60
2023-04-10T14:06:51.635Z,3.08
2023-04-10T14:09:19.879Z,2.92
2023-04-10T14:11:47.409Z,2.50
2023-04-10T14:14:16.125Z,2.75
2023-04-10T14:16:43.687Z,2.53
2023-04-10T14:19:11.320Z,2.90
2023-04-10T14:21:44.452Z,2.90
2023-04-10T14:24:12.544Z,2.50
2023-04-10T14:26:40.325Z,2.90
2023-04-10T14:29:09.122Z,2.80
2023-04-10T14:31:46.976Z,2.73
2023-04-10T14:34:22.343Z,2.85
2023-04-10T14:36:49.997Z,3.30
2023-04-10T14:39:24.972Z,3.40
2023-04-10T14:41:52.788Z,3.38
2023-04-10T14:44:20.525Z,5.55
2023-04-10T14:46:48.136Z,3.00
2023-04-10T14:49:15.856Z,3.05
2023-04-10T14:51:48.445Z,3.15
2023-04-10T14:54:22.064Z,4.38
2023-04-10T14:56:50.454Z,3.60
2023-04-10T14:59:18.459Z,3.22
2023-04-10T15:01:46.319Z,3.88
2023-04-10T15:04:17.410Z,3.38
2023-04-10T15:06:45.901Z,3.33
2023-04-10T15:09:13.765Z,3.65
2023-04-10T15:11:42.231Z,3.72
2023-04-10T15:14:12.238Z,3.85
2023-04-10T15:16:39.982Z,3.65
2023-04-10T15:19:10.725Z,3.40
2023-04-10T15:21:41.333Z,4.68
2023-04-10T15:24:08.854Z,3.58
2023-04-10T15:29:11.323Z,3.60
2023-04-10T15:31:39.202Z,3.10
2023-04-10T15:34:09.149Z,3.40
2023-04-10T15:36:36.926Z,3.25
2023-04-10T15:39:07.098Z,3.65
2023-04-10T15:41:35.003Z,3.53
2023-04-10T15:44:02.630Z,3.75
2023-04-10T15:46:33.309Z,3.22
2023-04-10T15:49:02.090Z,4.10
2023-04-10T15:51:31.578Z,3.90
2023-04-10T15:53:59.149Z,4.22
2023-04-10T15:56:26.636Z,3.85
2023-04-10T15:58:56.522Z,4.00
2023-04-10T16:01:24.402Z,4.50
2023-04-10T16:03:52.392Z,4.68
2023-04-10T16:06:20.119Z,5.80
2023-04-10T16:08:47.946Z,4.88
2023-04-10T16:11:15.671Z,5.10
2023-04-10T16:13:46.639Z,4.55
2023-04-10T16:16:18.191Z,4.50
2023-04-10T16:18:46.619Z,4.75
2023-04-10T16:21:16.511Z,4.28
2023-04-10T16:23:46.056Z,5.10
2023-04-10T16:26:15.711Z,4.60
2023-04-10T16:28:43.253Z,5.05
2023-04-10T16:31:10.892Z,4.63
2023-04-10T16:33:39.711Z,4.53
2023-04-10T16:36:08.178Z,4.63
2023-04-10T16:38:35.838Z,4.35
2023-04-10T16:41:04.779Z,5.03
2023-04-10T16:43:32.900Z,4.32
2023-04-10T16:46:01.628Z,4.72
2023-04-10T16:48:32.220Z,4.45
2023-04-10T16:51:05.768Z,4.20
2023-04-10T16:53:36.127Z,4.20
2023-04-10T16:56:05.582Z,4.50
2023-04-10T16:58:38.707Z,5.63
2023-04-10T17:01:16.777Z,4.88
2023-04-10T17:03:48.820Z,4.47
2023-04-10T17:06:17.667Z,4.15
2023-04-10T17:08:46.488Z,10.40
2023-04-10T17:11:14.176Z,4.43
2023-04-10T17:13:42.252Z,4.95
2023-04-10T17:18:40.659Z,5.40
2023-04-10T17:21:12.645Z,6.20
2023-04-10T17:23:41.340Z,6.13
2023-04-10T17:26:13.688Z,6.18
2023-04-10T17:28:45.134Z,6.15
2023-04-10T17:31:13.920Z,5.78
2023-04-10T17:33:42.425Z,5.68
2023-04-10T17:36:12.256Z,5.93
2023-04-10T17:38:42.326Z,6.05
2023-04-10T17:41:13.786Z,6.07
2023-04-10T17:43:46.337Z,5.55
2023-04-10T17:46:15.455Z,5.72
2023-04-10T17:51:11.786Z,6.20
2023-04-10T17:53:39.322Z,8.60
2023-04-10T17:56:07.369Z,6.15
2023-04-10T17:58:39.667Z,6.22
2023-04-10T18:01:08.261Z,6.47
2023-04-10T18:03:36.200Z,6.30
2023-04-10T18:06:04.280Z,7.43
2023-04-10T18:08:35.298Z,7.03
2023-04-10T18:13:30.733Z,5.88
2023-04-10T18:16:02.456Z,5.75
2023-04-10T18:18:30.901Z,5.65
2023-04-10T18:21:03.807Z,5.68
2023-04-10T18:23:33.370Z,6.30
2023-04-10T18:26:00.900Z,6.20
2023-04-10T18:28:29.865Z,6.18
2023-04-10T18:30:58.366Z,6.10
2023-04-10T18:33:26.609Z,6.57
2023-04-10T18:35:59.130Z,6.45
2023-04-10T18:38:27.237Z,6.30
2023-04-10T18:40:57.316Z,6.18
2023-04-10T18:43:27.559Z,7.93
2023-04-10T18:45:55.836Z,8.48
2023-04-10T18:48:23.533Z,6.70
2023-04-10T18:50:55.736Z,6.95
2023-04-10T18:53:23.322Z,6.35
2023-04-10T18:55:54.555Z,5.82
2023-04-10T18:58:26.699Z,5.82
2023-04-10T19:00:54.771Z,6.15
2023-04-10T19:03:23.661Z,5.50
2023-04-10T19:05:53.419Z,6.63
2023-04-10T19:08:21.438Z,6.40
2023-04-10T19:10:48.927Z,6.80
2023-04-10T19:13:18.323Z,5.75
2023-04-10T19:15:47.985Z,6.70
2023-04-10T19:18:16.585Z,6.50
2023-04-10T19:20:50.788Z,5.93
2023-04-10T19:23:22.554Z,6.30
2023-04-10T19:25:54.804Z,6.88
2023-04-10T19:28:23.589Z,6.55
2023-04-10T19:31:11.229Z,6.50
2023-04-10T19:33:39.318Z,7.00
2023-04-10T19:36:08.479Z,6.97
2023-04-10T19:38:36.519Z,6.53
2023-04-10T19:41:13.538Z,6.57
2023-04-10T19:43:42.587Z,7.00
2023-04-10T19:46:21.946Z,6.90
2023-04-10T19:48:49.652Z,6.38
2023-04-10T19:51:17.122Z,13.93
2023-04-10T19:53:44.827Z,8.25
2023-04-10T19:56:12.347Z,10.25
2023-04-10T19:58:41.625Z,7.00
2023-04-10T20:01:11.917Z,6.82
2023-04-10T20:03:40.684Z,7.30
2023-04-10T20:06:08.590Z,6.50
2023-04-10T20:08:37.785Z,6.35
2023-04-10T20:11:06.749Z,5.97
2023-04-10T20:13:35.014Z,5.65
2023-04-10T20:16:05.591Z,5.68
2023-04-10T20:18:33.228Z,5.72
2023-04-10T20:21:00.831Z,5.22
2023-04-10T20:23:28.330Z,4.95
2023-04-10T20:25:55.920Z,5.63
2023-04-10T20:28:23.454Z,5.68
2023-04-10T20:30:50.975Z,5.43
2023-04-10T20:33:20.232Z,5.10
2023-04-10T20:35:47.755Z,5.20
2023-04-10T20:38:15.809Z,4.93
2023-04-10T20:40:43.872Z,4.75
2023-04-10T20:43:16.202Z,4.70
2023-04-10T20:45:43.708Z,5.65
2023-04-10T20:48:11.245Z,4.97
2023-04-10T20:50:49.335Z,5.43
2023-04-10T20:53:17.071Z,5.07
2023-04-10T20:55:45.446Z,4.32
2023-04-10T20:58:13.628Z,4.25
2023-04-10T21:00:41.679Z,4.88
2023-04-10T21:03:10.184Z,4.93
2023-04-10T21:05:44.163Z,5.13
2023-04-10T21:08:13.823Z,4.72
2023-04-10T21:10:44.495Z,4.80
2023-04-10T21:13:15.833Z,4.68
2023-04-10T21:15:48.583Z,4.50
2023-04-10T21:18:16.202Z,4.97
2023-04-10T21:20:50.501Z,5.47
2023-04-10T21:23:18.703Z,5.28
2023-04-10T21:25:55.098Z,5.60
2023-04-10T21:28:22.841Z,6.28
2023-04-10T21:30:51.333Z,5.72
2023-04-10T21:33:19.876Z,5.88
2023-04-10T21:35:47.873Z,5.88
2023-04-10T21:38:15.813Z,5.50
2023-04-10T21:40:54.506Z,5.32
2023-04-10T21:43:23.081Z,5.32
2023-04-10T21:45:50.968Z,5.50
2023-04-10T21:48:20.697Z,5.35
2023-04-10T21:50:50.700Z,5.95
2023-04-10T21:53:19.017Z,5.47
2023-04-10T21:55:46.881Z,6.15
2023-04-10T21:58:14.328Z,6.55
2023-04-10T22:00:46.953Z,6.20
2023-04-10T22:03:16.339Z,6.30
2023-04-10T22:05:44.125Z,6.85
2023-04-10T22:08:12.045Z,6.15
2023-04-10T22:10:39.629Z,6.63
2023-04-10T22:13:10.441Z,6.32
2023-04-10T22:15:42.588Z,5.47
2023-04-10T22:18:10.122Z,6.05
2023-04-10T22:20:43.049Z,5.65
2023-04-10T22:23:11.166Z,5.90
2023-04-10T22:25:38.949Z,6.07
2023-04-10T22:28:09.669Z,6.20
2023-04-10T22:30:37.929Z,5.15
2023-04-10T22:33:05.753Z,5.07
2023-04-10T22:35:33.657Z,5.35
2023-04-10T22:38:03.747Z,15.85
2023-04-10T22:40:33.460Z,6.10
2023-04-10T22:43:01.201Z,4.72
2023-04-10T22:45:28.715Z,6.07
2023-04-10T22:47:56.307Z,5.07
2023-04-10T22:50:23.853Z,4.85
2023-04-10T22:52:52.628Z,5.05
2023-04-10T22:55:20.246Z,4.82
2023-04-10T22:57:49.455Z,5.00
2023-04-10T23:00:17.293Z,5.50
2023-04-10T23:02:44.991Z,4.95
2023-04-10T23:05:12.534Z,4.70
2023-04-10T23:07:40.489Z,4.85
2023-04-10T23:10:08.776Z,5.30
2023-04-10T23:12:47.866Z,4.88
2023-04-10T23:15:15.630Z,5.20
2023-04-10T23:17:43.443Z,4.82
2023-04-10T23:20:16.394Z,5.22
2023-04-10T23:22:44.195Z,4.85
2023-04-10T23:25:11.726Z,6.10
2023-04-10T23:27:39.925Z,5.30
2023-04-10T23:30:08.359Z,5.07
2023-04-10T23:32:39.854Z,5.22
2023-04-10T23:35:16.166Z,4.85
2023-04-10T23:37:43.996Z,5.63
2023-04-10T23:40:11.887Z,5.90
2023-04-10T23:42:39.654Z,5.10
2023-04-10T23:45:07.813Z,5.75
2023-04-10T23:50:05.185Z,6.05
2023-04-10T23:52:32.894Z,5.68
2023-04-10T23:55:03.287Z,6.05
2023-04-10T23:57:31.265Z,6.00
2023-04-10T23:59:59.559Z,6.30
